FRS22 LKLB-EDXH
Flight info
| Callsign | FRS22 |
|---|---|
| Flight time | 3h 51m |
| Altitude | 3000 |
| Route | DCT LKPD DCT DEKOV DCT EDDC DCT EDBM DCT EDDH |
| Aircraft | DA40/L-SDFGRY/SB2 |
Departure
| Time | 2026-04-24 16:22 |
|---|---|
| Airport | Liberec Airfield (LKLB) |
Arrival
| Time | 2026-04-24 20:13 |
|---|---|
| Airport | Helgoland-Düne Airport (EDXH) |
| Time | Latitude | Longitude | Altitude | Speed | Heading |
|---|---|---|---|---|---|
| 2026-04-24 16:04 | 50.77226 | 15.02259 | 1310 ft | 0 kts | 308° |
| 2026-04-24 16:10 | 50.77225 | 15.02259 | 1313 ft | 0 kts | 308° |
| 2026-04-24 16:11 | 50.77225 | 15.02260 | 1313 ft | 0 kts | 308° |
| 2026-04-24 16:14 | 50.77209 | 15.02214 | 1310 ft | 7 kts | 215° |
| 2026-04-24 16:15 | 50.77192 | 15.02197 | 1310 ft | 0 kts | 215° |
| 2026-04-24 16:15 | 50.77097 | 15.02274 | 1309 ft | 11 kts | 146° |
| 2026-04-24 16:16 | 50.76945 | 15.02424 | 1309 ft | 15 kts | 147° |
| 2026-04-24 16:16 | 50.76852 | 15.02437 | 1309 ft | 12 kts | 159° |
| 2026-04-24 16:17 | 50.76671 | 15.02528 | 1309 ft | 10 kts | 167° |
| 2026-04-24 16:17 | 50.76514 | 15.02656 | 1309 ft | 13 kts | 153° |
| 2026-04-24 16:18 | 50.76387 | 15.02710 | 1309 ft | 0 kts | 237° |
| 2026-04-24 16:20 | 50.76387 | 15.02709 | 1309 ft | 2 kts | 238° |
| 2026-04-24 16:20 | 50.76369 | 15.02602 | 1309 ft | 3 kts | 339° |
| 2026-04-24 16:20 | 50.76389 | 15.02590 | 1308 ft | 0 kts | 330° |
| 2026-04-24 16:21 | 50.76637 | 15.02414 | 1308 ft | 70 kts | 336° |
| 2026-04-24 16:21 | 50.77138 | 15.02096 | 1507 ft | 83 kts | 349° |
| 2026-04-24 16:21 | 50.77746 | 15.02117 | 1773 ft | 89 kts | 0° |
| 2026-04-24 16:22 | 50.78393 | 15.02196 | 2008 ft | 96 kts | 3° |
| 2026-04-24 16:22 | 50.79490 | 15.01769 | 2427 ft | 120 kts | 282° |
| 2026-04-24 16:22 | 50.78981 | 15.00541 | 2425 ft | 144 kts | 226° |
| 2026-04-24 16:23 | 50.78241 | 14.99519 | 2508 ft | 150 kts | 210° |
| 2026-04-24 16:23 | 50.77265 | 14.99967 | 2480 ft | 167 kts | 140° |
| 2026-04-24 16:23 | 50.76333 | 15.01106 | 2439 ft | 172 kts | 141° |
| 2026-04-24 16:24 | 50.74611 | 15.03287 | 2988 ft | 136 kts | 102° |
| 2026-04-24 16:24 | 50.74685 | 15.04880 | 2555 ft | 165 kts | 72° |
| 2026-04-24 16:24 | 50.74818 | 15.06647 | 2844 ft | 153 kts | 81° |
| 2026-04-24 16:24 | 50.74878 | 15.08169 | 3395 ft | 126 kts | 78° |
| 2026-04-24 16:25 | 50.74948 | 15.09417 | 3923 ft | 108 kts | 74° |
| 2026-04-24 16:25 | 50.75023 | 15.10593 | 4160 ft | 109 kts | 74° |
| 2026-04-24 16:25 | 50.75097 | 15.11782 | 4416 ft | 108 kts | 73° |
| 2026-04-24 16:26 | 50.75245 | 15.14170 | 4894 ft | 111 kts | 76° |
| 2026-04-24 16:26 | 50.75318 | 15.15381 | 5088 ft | 111 kts | 74° |
| 2026-04-24 16:26 | 50.75465 | 15.17808 | 5516 ft | 111 kts | 74° |
| 2026-04-24 16:27 | 50.75539 | 15.19028 | 5741 ft | 111 kts | 73° |
| 2026-04-24 16:27 | 50.75612 | 15.20247 | 5956 ft | 112 kts | 74° |
| 2026-04-24 16:27 | 50.75693 | 15.21497 | 5991 ft | 128 kts | 75° |
| 2026-04-24 16:27 | 50.75784 | 15.22986 | 5995 ft | 143 kts | 76° |
| 2026-04-24 16:28 | 50.75879 | 15.24601 | 5983 ft | 150 kts | 77° |
| 2026-04-24 16:28 | 50.75953 | 15.26246 | 5996 ft | 154 kts | 86° |
| 2026-04-24 16:28 | 50.75353 | 15.29754 | 5978 ft | 173 kts | 100° |
| 2026-04-24 16:29 | 50.75015 | 15.31589 | 5987 ft | 176 kts | 100° |
| 2026-04-24 16:29 | 50.74794 | 15.32830 | 5983 ft | 178 kts | 100° |
| 2026-04-24 16:29 | 50.74662 | 15.36604 | 5990 ft | 171 kts | 66° |
| 2026-04-24 16:30 | 50.75424 | 15.40162 | 5972 ft | 169 kts | 59° |
| 2026-04-24 16:30 | 50.75961 | 15.41789 | 5978 ft | 164 kts | 52° |
| 2026-04-24 16:30 | 50.76479 | 15.43409 | 5986 ft | 172 kts | 67° |
| 2026-04-24 16:31 | 50.76686 | 15.45299 | 5983 ft | 177 kts | 75° |
| 2026-04-24 16:31 | 50.76871 | 15.47231 | 5978 ft | 178 kts | 73° |
| 2026-04-24 16:31 | 50.77080 | 15.49164 | 5975 ft | 177 kts | 73° |
| 2026-04-24 16:31 | 50.77292 | 15.51057 | 5971 ft | 174 kts | 72° |
| 2026-04-24 16:32 | 50.77360 | 15.52972 | 5970 ft | 179 kts | 90° |
| 2026-04-24 16:32 | 50.76963 | 15.54854 | 5950 ft | 183 kts | 115° |
| 2026-04-24 16:32 | 50.76239 | 15.56480 | 5950 ft | 179 kts | 123° |
| 2026-04-24 16:32 | 50.75495 | 15.57966 | 5973 ft | 170 kts | 135° |
| 2026-04-24 16:33 | 50.74486 | 15.58911 | 5972 ft | 174 kts | 163° |
| 2026-04-24 16:33 | 50.73288 | 15.59106 | 5870 ft | 174 kts | 191° |
| 2026-04-24 16:33 | 50.72117 | 15.58763 | 5732 ft | 169 kts | 195° |
| 2026-04-24 16:33 | 50.70966 | 15.58404 | 5574 ft | 169 kts | 193° |
| 2026-04-24 16:34 | 50.69789 | 15.58514 | 5525 ft | 171 kts | 172° |
| 2026-04-24 16:34 | 50.68616 | 15.58811 | 5517 ft | 169 kts | 174° |
| 2026-04-24 16:34 | 50.67456 | 15.59088 | 5307 ft | 170 kts | 174° |
| 2026-04-24 16:34 | 50.66283 | 15.59395 | 5051 ft | 172 kts | 168° |
| 2026-04-24 16:35 | 50.65141 | 15.59935 | 4899 ft | 169 kts | 165° |
| 2026-04-24 16:35 | 50.64027 | 15.60457 | 4784 ft | 165 kts | 165° |
| 2026-04-24 16:35 | 50.62919 | 15.60966 | 4656 ft | 168 kts | 165° |
| 2026-04-24 16:35 | 50.61788 | 15.61496 | 4538 ft | 171 kts | 165° |
| 2026-04-24 16:36 | 50.60646 | 15.62092 | 4317 ft | 175 kts | 161° |
| 2026-04-24 16:36 | 50.59481 | 15.62668 | 4265 ft | 175 kts | 163° |
| 2026-04-24 16:36 | 50.58326 | 15.63237 | 4156 ft | 175 kts | 162° |
| 2026-04-24 16:36 | 50.57211 | 15.64001 | 3938 ft | 182 kts | 144° |
| 2026-04-24 16:37 | 50.56359 | 15.65483 | 3716 ft | 179 kts | 120° |
| 2026-04-24 16:37 | 50.55698 | 15.67157 | 3520 ft | 182 kts | 118° |
| 2026-04-24 16:37 | 50.55027 | 15.68844 | 3319 ft | 181 kts | 117° |
| 2026-04-24 16:37 | 50.54344 | 15.70511 | 3118 ft | 183 kts | 124° |
| 2026-04-24 16:38 | 50.53377 | 15.71809 | 2955 ft | 179 kts | 145° |
| 2026-04-24 16:38 | 50.52368 | 15.72869 | 2943 ft | 174 kts | 144° |
| 2026-04-24 16:38 | 50.51398 | 15.73922 | 2997 ft | 167 kts | 144° |
| 2026-04-24 16:38 | 50.50376 | 15.74733 | 2987 ft | 171 kts | 168° |
| 2026-04-24 16:39 | 50.49218 | 15.74828 | 2995 ft | 165 kts | 183° |
| 2026-04-24 16:39 | 50.48048 | 15.74817 | 2992 ft | 167 kts | 184° |
| 2026-04-24 16:39 | 50.46853 | 15.74920 | 3001 ft | 186 kts | 169° |
| 2026-04-24 16:39 | 50.45689 | 15.75926 | 2971 ft | 197 kts | 136° |
| 2026-04-24 16:40 | 50.44928 | 15.77642 | 2990 ft | 187 kts | 114° |
| 2026-04-24 16:40 | 50.44330 | 15.79417 | 2970 ft | 184 kts | 115° |
| 2026-04-24 16:40 | 50.43717 | 15.81154 | 2998 ft | 184 kts | 121° |
| 2026-04-24 16:40 | 50.42996 | 15.82814 | 2988 ft | 183 kts | 121° |
| 2026-04-24 16:41 | 50.42299 | 15.84472 | 3030 ft | 178 kts | 121° |
| 2026-04-24 16:41 | 50.41551 | 15.86033 | 2985 ft | 174 kts | 129° |
| 2026-04-24 16:41 | 50.40773 | 15.87422 | 3008 ft | 173 kts | 128° |
| 2026-04-24 16:41 | 50.39979 | 15.88871 | 2987 ft | 178 kts | 130° |
| 2026-04-24 16:42 | 50.38978 | 15.90026 | 2981 ft | 178 kts | 158° |
| 2026-04-24 16:42 | 50.37811 | 15.90463 | 3000 ft | 169 kts | 173° |
| 2026-04-24 16:42 | 50.36646 | 15.90740 | 3006 ft | 167 kts | 175° |
| 2026-04-24 16:42 | 50.35519 | 15.90644 | 3025 ft | 163 kts | 201° |
| 2026-04-24 16:43 | 50.34407 | 15.90099 | 3010 ft | 168 kts | 202° |
| 2026-04-24 16:43 | 50.33295 | 15.89574 | 3018 ft | 171 kts | 201° |
| 2026-04-24 16:43 | 50.32200 | 15.88868 | 3001 ft | 166 kts | 212° |
| 2026-04-24 16:43 | 50.31128 | 15.88119 | 3009 ft | 168 kts | 208° |
| 2026-04-24 16:44 | 50.30039 | 15.87403 | 3037 ft | 169 kts | 207° |
| 2026-04-24 16:44 | 50.28975 | 15.86674 | 3022 ft | 164 kts | 210° |
| 2026-04-24 16:44 | 50.27934 | 15.85883 | 2987 ft | 164 kts | 219° |
| 2026-04-24 16:44 | 50.26988 | 15.84939 | 2967 ft | 165 kts | 217° |
| 2026-04-24 16:45 | 50.26017 | 15.84026 | 2982 ft | 167 kts | 217° |
| 2026-04-24 16:45 | 50.25030 | 15.83078 | 2995 ft | 163 kts | 217° |
| 2026-04-24 16:45 | 50.24027 | 15.82299 | 3032 ft | 163 kts | 202° |
| 2026-04-24 16:45 | 50.22892 | 15.82102 | 3022 ft | 163 kts | 186° |
| 2026-04-24 16:46 | 50.21769 | 15.81984 | 3007 ft | 164 kts | 188° |
| 2026-04-24 16:46 | 50.20609 | 15.81849 | 2984 ft | 171 kts | 188° |
| 2026-04-24 16:46 | 50.19437 | 15.81726 | 3001 ft | 166 kts | 190° |
| 2026-04-24 16:46 | 50.18302 | 15.81423 | 3034 ft | 163 kts | 207° |
| 2026-04-24 16:47 | 50.17200 | 15.80810 | 2975 ft | 170 kts | 204° |
| 2026-04-24 16:47 | 50.16083 | 15.80223 | 2980 ft | 170 kts | 205° |
| 2026-04-24 16:47 | 50.14963 | 15.79778 | 3010 ft | 170 kts | 189° |
| 2026-04-24 16:47 | 50.13779 | 15.80042 | 3001 ft | 174 kts | 162° |
| 2026-04-24 16:48 | 50.12737 | 15.81065 | 2985 ft | 179 kts | 134° |
| 2026-04-24 16:48 | 50.11934 | 15.82525 | 3000 ft | 183 kts | 129° |
| 2026-04-24 16:48 | 50.10961 | 15.83793 | 3014 ft | 185 kts | 153° |
| 2026-04-24 16:48 | 50.09752 | 15.84359 | 3010 ft | 180 kts | 176° |
| 2026-04-24 16:49 | 50.08542 | 15.84186 | 2996 ft | 171 kts | 201° |
| 2026-04-24 16:49 | 50.07575 | 15.83506 | 3003 ft | 166 kts | 214° |
| 2026-04-24 16:49 | 50.06570 | 15.82568 | 2986 ft | 165 kts | 227° |
| 2026-04-24 16:49 | 50.05866 | 15.81251 | 3025 ft | 155 kts | 245° |
| 2026-04-24 16:50 | 50.05569 | 15.80238 | 3005 ft | 153 kts | 255° |
| 2026-04-24 16:50 | 50.05021 | 15.78262 | 3006 ft | 148 kts | 253° |
| 2026-04-24 16:50 | 50.04617 | 15.76810 | 2994 ft | 145 kts | 255° |
| 2026-04-24 16:50 | 50.04228 | 15.75364 | 3011 ft | 146 kts | 259° |
| 2026-04-24 16:51 | 50.04106 | 15.73838 | 3005 ft | 142 kts | 279° |
| 2026-04-24 16:51 | 50.04211 | 15.72257 | 2984 ft | 147 kts | 280° |
| 2026-04-24 16:51 | 50.04293 | 15.70726 | 2990 ft | 142 kts | 281° |
| 2026-04-24 16:51 | 50.04390 | 15.69209 | 3015 ft | 141 kts | 282° |
| 2026-04-24 16:52 | 50.04481 | 15.67692 | 2993 ft | 139 kts | 281° |
| 2026-04-24 16:52 | 50.04538 | 15.66215 | 2991 ft | 137 kts | 272° |
| 2026-04-24 16:52 | 50.04412 | 15.64747 | 2978 ft | 141 kts | 269° |
| 2026-04-24 16:52 | 50.04303 | 15.63282 | 3006 ft | 138 kts | 269° |
| 2026-04-24 16:53 | 50.04187 | 15.61757 | 2979 ft | 145 kts | 269° |
| 2026-04-24 16:53 | 50.04064 | 15.60172 | 2989 ft | 153 kts | 269° |
| 2026-04-24 16:53 | 50.03944 | 15.58506 | 2978 ft | 154 kts | 273° |
| 2026-04-24 16:53 | 50.03959 | 15.56877 | 3006 ft | 154 kts | 275° |
| 2026-04-24 16:54 | 50.03972 | 15.55179 | 3007 ft | 160 kts | 276° |
| 2026-04-24 16:54 | 50.03991 | 15.53446 | 3007 ft | 159 kts | 276° |
| 2026-04-24 16:54 | 50.04004 | 15.51745 | 3013 ft | 154 kts | 276° |
| 2026-04-24 16:54 | 50.03994 | 15.50100 | 3000 ft | 147 kts | 275° |
| 2026-04-24 16:55 | 50.03929 | 15.48506 | 3013 ft | 148 kts | 273° |
| 2026-04-24 16:55 | 50.03877 | 15.46888 | 2990 ft | 151 kts | 274° |
| 2026-04-24 16:55 | 50.03816 | 15.45270 | 3013 ft | 153 kts | 273° |
| 2026-04-24 16:55 | 50.03754 | 15.43650 | 2997 ft | 147 kts | 273° |
| 2026-04-24 16:56 | 50.03715 | 15.42098 | 2999 ft | 139 kts | 275° |
| 2026-04-24 16:56 | 50.03694 | 15.40558 | 2994 ft | 145 kts | 275° |
| 2026-04-24 16:56 | 50.03659 | 15.38975 | 3008 ft | 149 kts | 275° |
| 2026-04-24 16:56 | 50.03629 | 15.37381 | 3024 ft | 145 kts | 273° |
| 2026-04-24 16:57 | 50.03602 | 15.35790 | 3003 ft | 149 kts | 274° |
| 2026-04-24 16:57 | 50.03430 | 15.34216 | 3002 ft | 148 kts | 259° |
| 2026-04-24 16:57 | 50.03120 | 15.32714 | 2998 ft | 147 kts | 261° |
| 2026-04-24 16:57 | 50.02831 | 15.31230 | 3016 ft | 142 kts | 261° |
| 2026-04-24 16:58 | 50.02546 | 15.29777 | 3012 ft | 140 kts | 260° |
| 2026-04-24 16:58 | 50.02259 | 15.28311 | 3015 ft | 146 kts | 261° |
| 2026-04-24 16:58 | 50.02170 | 15.26793 | 3025 ft | 139 kts | 282° |
| 2026-04-24 16:58 | 50.02387 | 15.25328 | 3033 ft | 144 kts | 290° |
| 2026-04-24 16:59 | 50.02651 | 15.23813 | 3029 ft | 144 kts | 290° |
| 2026-04-24 16:59 | 50.02912 | 15.22318 | 3007 ft | 143 kts | 290° |
| 2026-04-24 16:59 | 50.03777 | 15.19643 | 3013 ft | 145 kts | 315° |
| 2026-04-24 17:00 | 50.04571 | 15.18757 | 3051 ft | 139 kts | 332° |
| 2026-04-24 17:00 | 50.06370 | 15.17638 | 3045 ft | 138 kts | 336° |
| 2026-04-24 17:00 | 50.07275 | 15.17080 | 3021 ft | 138 kts | 336° |
| 2026-04-24 17:01 | 50.09039 | 15.16143 | 3024 ft | 132 kts | 340° |
| 2026-04-24 17:01 | 50.09920 | 15.15712 | 3022 ft | 134 kts | 340° |
| 2026-04-24 17:02 | 50.11466 | 15.14957 | 3019 ft | 152 kts | 341° |
| 2026-04-24 17:02 | 50.12792 | 15.14118 | 3024 ft | 151 kts | 326° |
| 2026-04-24 17:02 | 50.13586 | 15.13088 | 3022 ft | 147 kts | 316° |
| 2026-04-24 17:02 | 50.14328 | 15.12002 | 3045 ft | 148 kts | 317° |
| 2026-04-24 17:03 | 50.15871 | 15.09767 | 3018 ft | 149 kts | 317° |
| 2026-04-24 17:03 | 50.16504 | 15.08523 | 3042 ft | 148 kts | 302° |
| 2026-04-24 17:03 | 50.16874 | 15.06986 | 3040 ft | 157 kts | 286° |
| 2026-04-24 17:04 | 50.17039 | 15.05288 | 3034 ft | 158 kts | 284° |
| 2026-04-24 17:04 | 50.17384 | 15.01903 | 3052 ft | 155 kts | 283° |
| 2026-04-24 17:04 | 50.17382 | 15.00212 | 3045 ft | 160 kts | 271° |
| 2026-04-24 17:05 | 50.17311 | 14.98486 | 3056 ft | 159 kts | 271° |
| 2026-04-24 17:05 | 50.17242 | 14.96775 | 3040 ft | 156 kts | 272° |
| 2026-04-24 17:05 | 50.17130 | 14.93917 | 3035 ft | 159 kts | 273° |
| 2026-04-24 17:06 | 50.17204 | 14.92127 | 3035 ft | 156 kts | 280° |
| 2026-04-24 17:06 | 50.17376 | 14.88765 | 3067 ft | 156 kts | 280° |
| 2026-04-24 17:06 | 50.17436 | 14.87635 | 3038 ft | 158 kts | 280° |
| 2026-04-24 17:07 | 50.17521 | 14.85938 | 3018 ft | 160 kts | 278° |
| 2026-04-24 17:07 | 50.17444 | 14.83650 | 3046 ft | 156 kts | 273° |
| 2026-04-24 17:07 | 50.17319 | 14.80197 | 3072 ft | 158 kts | 271° |
| 2026-04-24 17:08 | 50.17282 | 14.76821 | 3052 ft | 151 kts | 282° |
| 2026-04-24 17:08 | 50.17400 | 14.75204 | 3054 ft | 150 kts | 282° |
| 2026-04-24 17:08 | 50.17515 | 14.73570 | 3068 ft | 158 kts | 282° |
| 2026-04-24 17:09 | 50.17944 | 14.70152 | 3043 ft | 159 kts | 298° |
| 2026-04-24 17:09 | 50.19326 | 14.67601 | 3052 ft | 156 kts | 320° |
| 2026-04-24 17:10 | 50.20136 | 14.66485 | 3054 ft | 153 kts | 319° |
| 2026-04-24 17:10 | 50.22153 | 14.62705 | 3049 ft | 156 kts | 292° |
| 2026-04-24 17:11 | 50.23194 | 14.57995 | 3035 ft | 155 kts | 293° |
| 2026-04-24 17:12 | 50.26926 | 14.53328 | 3020 ft | 153 kts | 331° |
| 2026-04-24 18:54 | 52.88392 | 11.96481 | 2975 ft | 138 kts | 291° |
| 2026-04-24 18:55 | 52.89041 | 11.93474 | 2981 ft | 139 kts | 292° |
| 2026-04-24 18:55 | 52.89363 | 11.91960 | 2984 ft | 140 kts | 291° |
| 2026-04-24 18:55 | 52.89674 | 11.90426 | 2976 ft | 142 kts | 291° |
| 2026-04-24 18:56 | 52.89990 | 11.88872 | 2977 ft | 143 kts | 291° |
| 2026-04-24 18:56 | 52.90311 | 11.87318 | 2975 ft | 142 kts | 293° |
| 2026-04-24 18:56 | 52.90839 | 11.85954 | 2980 ft | 141 kts | 314° |
| 2026-04-24 18:56 | 52.91633 | 11.85017 | 2981 ft | 141 kts | 334° |
| 2026-04-24 18:57 | 52.92590 | 11.84626 | 2977 ft | 144 kts | 354° |
| 2026-04-24 18:57 | 52.93602 | 11.84665 | 2978 ft | 145 kts | 357° |
| 2026-04-24 18:57 | 52.94573 | 11.84353 | 2975 ft | 142 kts | 336° |
| 2026-04-24 18:57 | 52.95392 | 11.83478 | 2977 ft | 140 kts | 317° |
| 2026-04-24 18:58 | 52.95966 | 11.82174 | 2979 ft | 141 kts | 300° |
| 2026-04-24 18:58 | 52.96429 | 11.80743 | 2982 ft | 141 kts | 301° |
| 2026-04-24 18:58 | 52.96901 | 11.79316 | 2983 ft | 142 kts | 300° |
| 2026-04-24 18:58 | 52.97376 | 11.77871 | 2981 ft | 143 kts | 300° |
| 2026-04-24 18:59 | 52.97656 | 11.76282 | 2976 ft | 146 kts | 278° |
| 2026-04-24 18:59 | 52.97708 | 11.74607 | 2975 ft | 145 kts | 277° |
| 2026-04-24 18:59 | 52.97769 | 11.72940 | 2978 ft | 145 kts | 277° |
| 2026-04-24 18:59 | 52.97830 | 11.71277 | 2981 ft | 144 kts | 277° |
| 2026-04-24 19:00 | 52.97919 | 11.69630 | 2977 ft | 142 kts | 285° |
| 2026-04-24 19:00 | 52.98321 | 11.68154 | 2979 ft | 140 kts | 307° |
| 2026-04-24 19:00 | 52.98948 | 11.66924 | 2978 ft | 140 kts | 311° |
| 2026-04-24 19:00 | 52.99577 | 11.65693 | 2977 ft | 140 kts | 311° |
| 2026-04-24 19:01 | 53.00204 | 11.64463 | 2978 ft | 139 kts | 311° |
| 2026-04-24 19:01 | 53.00956 | 11.63419 | 2870 ft | 146 kts | 331° |
| 2026-04-24 19:01 | 53.01785 | 11.62819 | 2759 ft | 150 kts | 335° |
| 2026-04-24 19:01 | 53.02869 | 11.62017 | 2610 ft | 153 kts | 331° |
| 2026-04-24 19:02 | 53.03438 | 11.61331 | 2519 ft | 153 kts | 316° |
| 2026-04-24 19:02 | 53.04200 | 11.59337 | 2348 ft | 156 kts | 290° |
| 2026-04-24 19:02 | 53.04402 | 11.57586 | 2225 ft | 157 kts | 282° |
| 2026-04-24 19:02 | 53.04584 | 11.55766 | 2091 ft | 157 kts | 282° |
| 2026-04-24 19:03 | 53.04756 | 11.54073 | 2008 ft | 153 kts | 283° |
| 2026-04-24 19:03 | 53.05140 | 11.52396 | 2008 ft | 146 kts | 302° |
| 2026-04-24 19:03 | 53.05687 | 11.51026 | 2009 ft | 143 kts | 303° |
| 2026-04-24 19:03 | 53.06164 | 11.49809 | 2006 ft | 141 kts | 303° |
| 2026-04-24 19:04 | 53.06696 | 11.48455 | 2009 ft | 139 kts | 303° |
| 2026-04-24 19:04 | 53.07219 | 11.47111 | 2012 ft | 138 kts | 300° |
| 2026-04-24 19:04 | 53.07511 | 11.45591 | 2011 ft | 139 kts | 278° |
| 2026-04-24 19:04 | 53.07426 | 11.43985 | 2011 ft | 142 kts | 257° |
| 2026-04-24 19:05 | 53.07112 | 11.42431 | 2011 ft | 143 kts | 257° |
| 2026-04-24 19:05 | 53.06805 | 11.40859 | 2009 ft | 143 kts | 256° |
| 2026-04-24 19:05 | 53.06497 | 11.39286 | 2014 ft | 143 kts | 256° |
| 2026-04-24 19:05 | 53.06237 | 11.37702 | 2008 ft | 140 kts | 268° |
| 2026-04-24 19:06 | 53.06325 | 11.36127 | 2007 ft | 136 kts | 288° |
| 2026-04-24 19:06 | 53.06712 | 11.34723 | 2018 ft | 136 kts | 298° |
| 2026-04-24 19:06 | 53.07143 | 11.33322 | 2012 ft | 137 kts | 297° |
| 2026-04-24 19:06 | 53.07573 | 11.31916 | 2011 ft | 136 kts | 297° |
| 2026-04-24 19:07 | 53.08017 | 11.30506 | 2006 ft | 135 kts | 302° |
| 2026-04-24 19:07 | 53.08656 | 11.29402 | 2010 ft | 136 kts | 322° |
| 2026-04-24 19:07 | 53.09213 | 11.28880 | 2005 ft | 136 kts | 330° |
| 2026-04-24 19:07 | 53.10325 | 11.27910 | 2012 ft | 136 kts | 329° |
| 2026-04-24 19:08 | 53.11163 | 11.27173 | 2012 ft | 136 kts | 329° |
| 2026-04-24 19:08 | 53.12000 | 11.26438 | 2013 ft | 136 kts | 329° |
| 2026-04-24 19:08 | 53.12751 | 11.25521 | 2008 ft | 134 kts | 311° |
| 2026-04-24 19:08 | 53.13170 | 11.24500 | 2016 ft | 134 kts | 297° |
| 2026-04-24 19:09 | 53.13446 | 11.23036 | 2011 ft | 135 kts | 286° |
| 2026-04-24 19:09 | 53.13696 | 11.21491 | 1945 ft | 138 kts | 287° |
| 2026-04-24 19:09 | 53.13944 | 11.19955 | 1946 ft | 137 kts | 287° |
| 2026-04-24 19:09 | 53.14189 | 11.18433 | 1941 ft | 136 kts | 287° |
| 2026-04-24 19:10 | 53.14441 | 11.17150 | 1949 ft | 134 kts | 292° |
| 2026-04-24 19:10 | 53.14754 | 11.15690 | 1954 ft | 134 kts | 291° |
| 2026-04-24 19:10 | 53.15067 | 11.14218 | 1949 ft | 135 kts | 291° |
| 2026-04-24 19:10 | 53.15379 | 11.12748 | 1944 ft | 134 kts | 291° |
| 2026-04-24 19:11 | 53.15589 | 11.11232 | 1946 ft | 136 kts | 275° |
| 2026-04-24 19:11 | 53.15602 | 11.09661 | 1946 ft | 136 kts | 275° |
| 2026-04-24 19:11 | 53.15628 | 11.08083 | 1949 ft | 136 kts | 275° |
| 2026-04-24 19:11 | 53.15652 | 11.06518 | 1948 ft | 135 kts | 275° |
| 2026-04-24 19:12 | 53.15796 | 11.04986 | 1949 ft | 134 kts | 291° |
| 2026-04-24 19:12 | 53.16257 | 11.03659 | 1949 ft | 133 kts | 310° |
| 2026-04-24 19:12 | 53.16891 | 11.02533 | 1950 ft | 133 kts | 312° |
| 2026-04-24 19:12 | 53.17515 | 11.01403 | 1945 ft | 133 kts | 312° |
| 2026-04-24 19:13 | 53.17936 | 11.00642 | 1946 ft | 133 kts | 312° |
| 2026-04-24 19:13 | 53.18767 | 10.99141 | 1949 ft | 133 kts | 312° |
| 2026-04-24 19:13 | 53.19394 | 10.98008 | 1946 ft | 133 kts | 312° |
| 2026-04-24 19:13 | 53.19986 | 10.96837 | 1952 ft | 132 kts | 308° |
| 2026-04-24 19:14 | 53.20566 | 10.95654 | 1953 ft | 132 kts | 309° |
| 2026-04-24 19:14 | 53.21148 | 10.94469 | 1953 ft | 132 kts | 309° |
| 2026-04-24 19:14 | 53.21727 | 10.93288 | 1951 ft | 132 kts | 309° |
| 2026-04-24 19:14 | 53.22311 | 10.92095 | 1953 ft | 132 kts | 309° |
| 2026-04-24 19:15 | 53.22892 | 10.90909 | 1953 ft | 132 kts | 309° |
| 2026-04-24 19:15 | 53.23418 | 10.89654 | 1955 ft | 132 kts | 298° |
| 2026-04-24 19:15 | 53.23854 | 10.88296 | 1957 ft | 133 kts | 300° |
| 2026-04-24 19:15 | 53.24302 | 10.86936 | 1952 ft | 134 kts | 300° |
| 2026-04-24 19:16 | 53.25203 | 10.84185 | 1957 ft | 136 kts | 299° |
| 2026-04-24 19:16 | 53.25656 | 10.82802 | 1956 ft | 136 kts | 299° |
| 2026-04-24 19:16 | 53.26166 | 10.81483 | 1958 ft | 134 kts | 311° |
| 2026-04-24 19:17 | 53.26798 | 10.80344 | 1955 ft | 134 kts | 311° |
| 2026-04-24 19:17 | 53.27422 | 10.79184 | 1955 ft | 134 kts | 311° |
| 2026-04-24 19:17 | 53.28044 | 10.78032 | 1956 ft | 133 kts | 311° |
| 2026-04-24 19:17 | 53.28666 | 10.76877 | 1960 ft | 134 kts | 311° |
| 2026-04-24 19:18 | 53.29357 | 10.75826 | 1958 ft | 135 kts | 325° |
| 2026-04-24 19:18 | 53.30230 | 10.75226 | 1960 ft | 138 kts | 342° |
| 2026-04-24 19:18 | 53.31171 | 10.74893 | 1959 ft | 138 kts | 342° |
| 2026-04-24 19:18 | 53.32114 | 10.74542 | 1957 ft | 139 kts | 343° |
| 2026-04-24 19:19 | 53.33057 | 10.74192 | 1958 ft | 139 kts | 343° |
| 2026-04-24 19:19 | 53.33906 | 10.73650 | 1957 ft | 136 kts | 326° |
| 2026-04-24 19:19 | 53.34615 | 10.72631 | 1958 ft | 135 kts | 309° |
| 2026-04-24 19:19 | 53.35098 | 10.71330 | 1959 ft | 135 kts | 300° |
| 2026-04-24 19:20 | 53.35539 | 10.70037 | 1958 ft | 135 kts | 301° |
| 2026-04-24 19:20 | 53.36004 | 10.68673 | 1957 ft | 135 kts | 300° |
| 2026-04-24 19:20 | 53.36471 | 10.67309 | 1959 ft | 135 kts | 300° |
| 2026-04-24 19:20 | 53.36927 | 10.65971 | 1960 ft | 134 kts | 300° |
| 2026-04-24 19:21 | 53.37238 | 10.65055 | 1960 ft | 134 kts | 300° |
| 2026-04-24 19:21 | 53.37846 | 10.63252 | 1961 ft | 134 kts | 300° |
| 2026-04-24 19:21 | 53.38304 | 10.61889 | 1961 ft | 134 kts | 300° |
| 2026-04-24 19:21 | 53.38616 | 10.60966 | 1960 ft | 136 kts | 300° |
| 2026-04-24 19:22 | 53.39080 | 10.59575 | 1964 ft | 137 kts | 300° |
| 2026-04-24 19:22 | 53.39690 | 10.57708 | 1962 ft | 139 kts | 300° |
| 2026-04-24 19:22 | 53.40002 | 10.56751 | 1966 ft | 139 kts | 300° |
| 2026-04-24 19:22 | 53.40462 | 10.55328 | 1963 ft | 139 kts | 300° |
| 2026-04-24 19:23 | 53.40925 | 10.53903 | 1966 ft | 139 kts | 300° |
| 2026-04-24 19:23 | 53.41387 | 10.52487 | 1968 ft | 138 kts | 300° |
| 2026-04-24 19:23 | 53.41850 | 10.51069 | 1963 ft | 139 kts | 300° |
| 2026-04-24 19:23 | 53.42238 | 10.49725 | 1962 ft | 139 kts | 293° |
| 2026-04-24 19:24 | 53.42553 | 10.48161 | 1968 ft | 140 kts | 291° |
| 2026-04-24 19:24 | 53.42859 | 10.46609 | 1968 ft | 140 kts | 291° |
| 2026-04-24 19:24 | 53.43060 | 10.45036 | 1966 ft | 143 kts | 275° |
| 2026-04-24 19:24 | 53.43058 | 10.43336 | 1970 ft | 144 kts | 275° |
| 2026-04-24 19:25 | 53.43087 | 10.42014 | 1970 ft | 143 kts | 278° |
| 2026-04-24 19:25 | 53.43151 | 10.40333 | 1973 ft | 143 kts | 278° |
| 2026-04-24 19:25 | 53.43224 | 10.38692 | 1974 ft | 143 kts | 279° |
| 2026-04-24 19:25 | 53.43299 | 10.37025 | 1987 ft | 143 kts | 278° |
| 2026-04-24 19:26 | 53.43374 | 10.35359 | 1983 ft | 143 kts | 279° |
| 2026-04-24 19:26 | 53.43451 | 10.33668 | 1984 ft | 144 kts | 278° |
| 2026-04-24 19:26 | 53.43371 | 10.31976 | 1983 ft | 149 kts | 261° |
| 2026-04-24 19:26 | 53.42985 | 10.30519 | 1981 ft | 154 kts | 244° |
| 2026-04-24 19:27 | 53.42315 | 10.29100 | 1978 ft | 155 kts | 239° |
| 2026-04-24 19:27 | 53.41584 | 10.27558 | 1976 ft | 154 kts | 239° |
| 2026-04-24 19:27 | 53.40979 | 10.26279 | 1974 ft | 155 kts | 239° |
| 2026-04-24 19:27 | 53.40419 | 10.24808 | 1973 ft | 149 kts | 255° |
| 2026-04-24 19:28 | 53.40195 | 10.23148 | 1972 ft | 144 kts | 272° |
| 2026-04-24 19:28 | 53.40174 | 10.21460 | 1983 ft | 143 kts | 274° |
| 2026-04-24 19:28 | 53.40143 | 10.19891 | 1982 ft | 142 kts | 274° |
| 2026-04-24 19:28 | 53.40111 | 10.18238 | 1980 ft | 142 kts | 274° |
| 2026-04-24 19:29 | 53.40637 | 10.15188 | 1987 ft | 137 kts | 305° |
| 2026-04-24 19:29 | 53.41196 | 10.14132 | 1984 ft | 138 kts | 315° |
| 2026-04-24 19:29 | 53.41785 | 10.13125 | 1982 ft | 139 kts | 313° |
| 2026-04-24 19:30 | 53.42452 | 10.11970 | 1985 ft | 140 kts | 314° |
| 2026-04-24 19:30 | 53.43103 | 10.10846 | 1989 ft | 140 kts | 314° |
| 2026-04-24 19:30 | 53.43689 | 10.09556 | 1989 ft | 140 kts | 299° |
| 2026-04-24 19:30 | 53.44015 | 10.07977 | 1986 ft | 142 kts | 287° |
| 2026-04-24 19:31 | 53.44249 | 10.06387 | 1988 ft | 142 kts | 288° |
| 2026-04-24 19:31 | 53.44494 | 10.04777 | 1989 ft | 143 kts | 288° |
| 2026-04-24 19:31 | 53.44741 | 10.03167 | 1986 ft | 142 kts | 289° |
| 2026-04-24 19:31 | 53.45172 | 10.01713 | 1989 ft | 139 kts | 307° |
| 2026-04-24 19:32 | 53.45847 | 10.00574 | 1984 ft | 138 kts | 322° |
| 2026-04-24 19:32 | 53.46700 | 9.99845 | 1988 ft | 140 kts | 338° |
| 2026-04-24 19:32 | 53.47670 | 9.99597 | 1994 ft | 144 kts | 355° |
| 2026-04-24 19:32 | 53.48681 | 9.99707 | 1994 ft | 146 kts | 357° |
| 2026-04-24 19:33 | 53.49691 | 9.99808 | 1990 ft | 146 kts | 358° |
| 2026-04-24 19:33 | 53.50720 | 9.99912 | 1990 ft | 148 kts | 357° |
| 2026-04-24 19:33 | 53.51723 | 9.99775 | 1990 ft | 143 kts | 341° |
| 2026-04-24 19:33 | 53.52623 | 9.99112 | 1991 ft | 141 kts | 325° |
| 2026-04-24 19:34 | 53.53346 | 9.98026 | 1995 ft | 140 kts | 310° |
| 2026-04-24 19:34 | 53.53832 | 9.96629 | 1993 ft | 141 kts | 294° |
| 2026-04-24 19:34 | 53.54046 | 9.94995 | 1995 ft | 144 kts | 280° |
| 2026-04-24 19:34 | 53.54162 | 9.93325 | 1992 ft | 145 kts | 282° |
| 2026-04-24 19:35 | 53.54280 | 9.91641 | 1992 ft | 145 kts | 281° |
| 2026-04-24 19:35 | 53.54390 | 9.89943 | 1989 ft | 146 kts | 281° |
| 2026-04-24 19:35 | 53.54499 | 9.88283 | 1986 ft | 144 kts | 281° |
| 2026-04-24 19:35 | 53.54609 | 9.86594 | 1987 ft | 143 kts | 281° |
| 2026-04-24 19:36 | 53.54717 | 9.84938 | 1988 ft | 142 kts | 281° |
| 2026-04-24 19:36 | 53.54839 | 9.83296 | 1986 ft | 140 kts | 286° |
| 2026-04-24 19:36 | 53.55083 | 9.81713 | 1985 ft | 141 kts | 288° |
| 2026-04-24 19:36 | 53.55323 | 9.80109 | 1984 ft | 142 kts | 288° |
| 2026-04-24 19:37 | 53.55562 | 9.78502 | 1983 ft | 142 kts | 288° |
| 2026-04-24 19:37 | 53.55801 | 9.76903 | 1986 ft | 142 kts | 288° |
| 2026-04-24 19:37 | 53.56041 | 9.75290 | 1988 ft | 141 kts | 288° |
| 2026-04-24 19:37 | 53.56270 | 9.73692 | 1986 ft | 141 kts | 285° |
| 2026-04-24 19:38 | 53.56458 | 9.71965 | 1982 ft | 142 kts | 285° |
| 2026-04-24 19:38 | 53.56626 | 9.70466 | 1984 ft | 141 kts | 285° |
| 2026-04-24 19:38 | 53.56809 | 9.68836 | 1983 ft | 140 kts | 285° |
| 2026-04-24 19:38 | 53.56986 | 9.67248 | 1982 ft | 139 kts | 285° |
| 2026-04-24 19:39 | 53.57164 | 9.65650 | 1982 ft | 139 kts | 285° |
| 2026-04-24 19:39 | 53.57492 | 9.64161 | 1988 ft | 135 kts | 302° |
| 2026-04-24 19:39 | 53.58055 | 9.62928 | 1986 ft | 134 kts | 312° |
| 2026-04-24 19:39 | 53.58658 | 9.61729 | 1988 ft | 134 kts | 311° |
| 2026-04-24 19:40 | 53.59261 | 9.60520 | 1986 ft | 135 kts | 311° |
| 2026-04-24 19:40 | 53.59863 | 9.59316 | 1988 ft | 135 kts | 311° |
| 2026-04-24 19:40 | 53.60471 | 9.58100 | 1990 ft | 137 kts | 311° |
| 2026-04-24 19:40 | 53.61106 | 9.56906 | 1989 ft | 137 kts | 319° |
| 2026-04-24 19:41 | 53.61892 | 9.55988 | 1987 ft | 138 kts | 325° |
| 2026-04-24 19:41 | 53.62684 | 9.55076 | 1990 ft | 138 kts | 324° |
| 2026-04-24 19:41 | 53.63480 | 9.54160 | 1992 ft | 138 kts | 324° |
| 2026-04-24 19:41 | 53.64273 | 9.53249 | 1989 ft | 137 kts | 324° |
| 2026-04-24 19:42 | 53.65053 | 9.52352 | 1988 ft | 137 kts | 324° |
| 2026-04-24 19:42 | 53.65855 | 9.51506 | 1989 ft | 137 kts | 333° |
| 2026-04-24 19:42 | 53.66753 | 9.50966 | 1989 ft | 137 kts | 337° |
| 2026-04-24 19:42 | 53.67645 | 9.50423 | 1986 ft | 137 kts | 337° |
| 2026-04-24 19:43 | 53.68538 | 9.49880 | 1992 ft | 137 kts | 337° |
| 2026-04-24 19:43 | 53.69436 | 9.49336 | 1990 ft | 137 kts | 337° |
| 2026-04-24 19:43 | 53.70331 | 9.48793 | 1985 ft | 137 kts | 337° |
| 2026-04-24 19:43 | 53.71175 | 9.48088 | 1987 ft | 135 kts | 323° |
| 2026-04-24 19:44 | 53.71846 | 9.46983 | 1989 ft | 135 kts | 311° |
| 2026-04-24 19:44 | 53.72470 | 9.45773 | 1990 ft | 135 kts | 312° |
| 2026-04-24 19:44 | 53.73082 | 9.44601 | 1993 ft | 135 kts | 312° |
| 2026-04-24 19:44 | 53.73704 | 9.43406 | 1991 ft | 135 kts | 312° |
| 2026-04-24 19:45 | 53.74326 | 9.42211 | 1988 ft | 135 kts | 312° |
| 2026-04-24 19:45 | 53.74848 | 9.41289 | 1989 ft | 135 kts | 320° |
| 2026-04-24 19:45 | 53.75671 | 9.40482 | 1987 ft | 136 kts | 335° |
| 2026-04-24 19:45 | 53.76549 | 9.39931 | 1994 ft | 136 kts | 336° |
| 2026-04-24 19:46 | 53.77444 | 9.39351 | 1992 ft | 136 kts | 335° |
| 2026-04-24 19:46 | 53.78329 | 9.38778 | 1991 ft | 137 kts | 336° |
| 2026-04-24 19:46 | 53.79221 | 9.38202 | 1987 ft | 138 kts | 336° |
| 2026-04-24 19:46 | 53.80119 | 9.37621 | 1988 ft | 138 kts | 335° |
| 2026-04-24 19:47 | 53.80851 | 9.36920 | 1989 ft | 137 kts | 322° |
| 2026-04-24 19:47 | 53.81627 | 9.35975 | 1992 ft | 138 kts | 324° |
| 2026-04-24 19:47 | 53.82408 | 9.35046 | 1992 ft | 137 kts | 324° |
| 2026-04-24 19:47 | 53.83176 | 9.34128 | 1994 ft | 137 kts | 324° |
| 2026-04-24 19:48 | 53.83958 | 9.33191 | 1987 ft | 137 kts | 324° |
| 2026-04-24 19:48 | 53.84723 | 9.32259 | 1989 ft | 137 kts | 321° |
| 2026-04-24 19:48 | 53.85797 | 9.29607 | 1990 ft | 138 kts | 301° |
| 2026-04-24 19:49 | 53.86712 | 9.26758 | 1988 ft | 137 kts | 301° |
| 2026-04-24 19:49 | 53.87611 | 9.23915 | 1983 ft | 137 kts | 297° |
| 2026-04-24 19:50 | 53.87895 | 9.19005 | 1988 ft | 142 kts | 278° |
| 2026-04-24 19:50 | 53.87928 | 9.17331 | 1993 ft | 143 kts | 278° |
| 2026-04-24 19:51 | 53.87985 | 9.13956 | 1997 ft | 144 kts | 276° |
| 2026-04-24 19:51 | 53.87794 | 9.12260 | 2000 ft | 149 kts | 260° |
| 2026-04-24 19:52 | 53.87213 | 9.08918 | 1991 ft | 147 kts | 261° |
| 2026-04-24 19:52 | 53.86927 | 9.07256 | 1995 ft | 147 kts | 261° |
| 2026-04-24 19:52 | 53.86640 | 9.05587 | 2002 ft | 148 kts | 261° |
| 2026-04-24 19:52 | 53.86349 | 9.03899 | 1991 ft | 149 kts | 261° |
| 2026-04-24 19:53 | 53.86048 | 9.02206 | 2005 ft | 151 kts | 260° |
| 2026-04-24 19:53 | 53.85743 | 9.00507 | 1998 ft | 151 kts | 260° |
| 2026-04-24 19:53 | 53.85135 | 8.97111 | 2003 ft | 150 kts | 260° |
| 2026-04-24 19:54 | 53.84832 | 8.95415 | 2002 ft | 151 kts | 259° |
| 2026-04-24 19:54 | 53.84622 | 8.93706 | 2009 ft | 147 kts | 270° |
| 2026-04-24 19:54 | 53.84499 | 8.91998 | 2010 ft | 147 kts | 269° |
| 2026-04-24 19:54 | 53.84364 | 8.90272 | 2010 ft | 147 kts | 269° |
| 2026-04-24 19:55 | 53.84319 | 8.89692 | 2007 ft | 147 kts | 269° |
| 2026-04-24 19:55 | 53.84101 | 8.86856 | 2008 ft | 146 kts | 269° |
| 2026-04-24 19:55 | 53.83989 | 8.85146 | 2011 ft | 145 kts | 275° |
| 2026-04-24 19:55 | 53.84151 | 8.83494 | 2011 ft | 142 kts | 289° |
| 2026-04-24 19:56 | 53.84405 | 8.81865 | 2016 ft | 144 kts | 290° |
| 2026-04-24 19:56 | 53.84667 | 8.80218 | 2011 ft | 145 kts | 290° |
| 2026-04-24 19:56 | 53.84928 | 8.78564 | 2012 ft | 146 kts | 290° |
| 2026-04-24 19:56 | 53.85200 | 8.76914 | 2006 ft | 145 kts | 292° |
| 2026-04-24 19:57 | 53.85531 | 8.75311 | 2006 ft | 144 kts | 294° |
| 2026-04-24 19:57 | 53.85866 | 8.73721 | 2015 ft | 143 kts | 294° |
| 2026-04-24 19:57 | 53.86205 | 8.72130 | 2020 ft | 144 kts | 293° |
| 2026-04-24 19:57 | 53.86578 | 8.70540 | 2018 ft | 146 kts | 297° |
| 2026-04-24 19:58 | 53.86997 | 8.68972 | 2018 ft | 146 kts | 297° |
| 2026-04-24 19:58 | 53.87417 | 8.67400 | 2006 ft | 147 kts | 297° |
| 2026-04-24 19:58 | 53.87840 | 8.65819 | 2013 ft | 148 kts | 297° |
| 2026-04-24 19:58 | 53.88266 | 8.64239 | 2010 ft | 148 kts | 298° |
| 2026-04-24 19:59 | 53.88693 | 8.62649 | 2013 ft | 148 kts | 298° |
| 2026-04-24 19:59 | 53.89111 | 8.61058 | 2015 ft | 147 kts | 297° |
| 2026-04-24 19:59 | 53.89523 | 8.59469 | 2006 ft | 148 kts | 297° |
| 2026-04-24 19:59 | 53.89937 | 8.57878 | 2012 ft | 148 kts | 297° |
| 2026-04-24 20:00 | 53.90354 | 8.56286 | 2006 ft | 147 kts | 297° |
| 2026-04-24 20:00 | 53.90769 | 8.54706 | 2016 ft | 147 kts | 297° |
| 2026-04-24 20:00 | 53.91181 | 8.53125 | 2008 ft | 147 kts | 297° |
| 2026-04-24 20:00 | 53.91592 | 8.51541 | 2009 ft | 147 kts | 297° |
| 2026-04-24 20:01 | 53.92009 | 8.49953 | 2003 ft | 148 kts | 297° |
| 2026-04-24 20:01 | 53.92431 | 8.48368 | 2007 ft | 147 kts | 297° |
| 2026-04-24 20:01 | 53.92850 | 8.46780 | 2009 ft | 148 kts | 298° |
| 2026-04-24 20:01 | 53.93265 | 8.45177 | 2006 ft | 148 kts | 297° |
| 2026-04-24 20:02 | 53.93537 | 8.44118 | 2009 ft | 148 kts | 297° |
| 2026-04-24 20:02 | 53.94089 | 8.41976 | 2007 ft | 148 kts | 297° |
| 2026-04-24 20:02 | 53.94499 | 8.40375 | 2002 ft | 148 kts | 297° |
| 2026-04-24 20:02 | 53.94907 | 8.38770 | 2006 ft | 147 kts | 297° |
| 2026-04-24 20:03 | 53.95176 | 8.37712 | 2011 ft | 148 kts | 297° |
| 2026-04-24 20:03 | 53.95591 | 8.36109 | 2015 ft | 149 kts | 297° |
| 2026-04-24 20:03 | 53.96014 | 8.34504 | 2015 ft | 148 kts | 297° |
| 2026-04-24 20:03 | 53.96436 | 8.32909 | 2010 ft | 148 kts | 297° |
| 2026-04-24 20:04 | 53.96845 | 8.31310 | 2014 ft | 148 kts | 296° |
| 2026-04-24 20:04 | 53.97245 | 8.29704 | 2013 ft | 147 kts | 297° |
| 2026-04-24 20:04 | 53.97641 | 8.28101 | 2005 ft | 147 kts | 296° |
| 2026-04-24 20:04 | 53.98035 | 8.26494 | 2007 ft | 147 kts | 296° |
| 2026-04-24 20:05 | 53.98428 | 8.24886 | 2014 ft | 147 kts | 297° |
| 2026-04-24 20:05 | 53.98810 | 8.23272 | 2002 ft | 147 kts | 296° |
| 2026-04-24 20:05 | 53.99188 | 8.21656 | 2017 ft | 147 kts | 296° |
| 2026-04-24 20:05 | 53.99442 | 8.19959 | 2010 ft | 149 kts | 288° |
| 2026-04-24 20:06 | 53.99659 | 8.18238 | 2012 ft | 149 kts | 288° |
| 2026-04-24 20:06 | 53.99874 | 8.16519 | 2011 ft | 149 kts | 287° |
| 2026-04-24 20:06 | 54.00088 | 8.14803 | 2010 ft | 149 kts | 287° |
| 2026-04-24 20:06 | 54.00349 | 8.13107 | 2009 ft | 147 kts | 295° |
| 2026-04-24 20:07 | 54.00637 | 8.12045 | 2006 ft | 146 kts | 302° |
| 2026-04-24 20:07 | 54.01425 | 8.10239 | 2011 ft | 143 kts | 319° |
| 2026-04-24 20:07 | 54.02215 | 8.09219 | 2004 ft | 143 kts | 324° |
| 2026-04-24 20:07 | 54.03022 | 8.08264 | 2005 ft | 143 kts | 326° |
| 2026-04-24 20:08 | 54.03856 | 8.07320 | 2012 ft | 143 kts | 326° |
| 2026-04-24 20:08 | 54.04690 | 8.06393 | 2012 ft | 143 kts | 327° |
| 2026-04-24 20:08 | 54.05525 | 8.05473 | 2016 ft | 143 kts | 327° |
| 2026-04-24 20:08 | 54.06360 | 8.04552 | 2015 ft | 143 kts | 327° |
| 2026-04-24 20:09 | 54.07200 | 8.03628 | 1995 ft | 145 kts | 327° |
| 2026-04-24 20:09 | 54.08044 | 8.02697 | 1993 ft | 144 kts | 327° |
| 2026-04-24 20:09 | 54.08888 | 8.01767 | 1994 ft | 145 kts | 327° |
| 2026-04-24 20:09 | 54.09732 | 8.00837 | 1999 ft | 144 kts | 327° |
| 2026-04-24 20:10 | 54.10573 | 7.99909 | 1991 ft | 144 kts | 327° |
| 2026-04-24 20:10 | 54.11415 | 7.98979 | 1996 ft | 144 kts | 327° |
| 2026-04-24 20:10 | 54.12257 | 7.98050 | 1992 ft | 144 kts | 327° |
| 2026-04-24 20:10 | 54.13093 | 7.97127 | 1992 ft | 141 kts | 327° |
| 2026-04-24 20:11 | 54.13888 | 7.96247 | 1979 ft | 131 kts | 327° |
| 2026-04-24 20:11 | 54.14567 | 7.95504 | 1652 ft | 125 kts | 329° |
| 2026-04-24 20:11 | 54.15296 | 7.94784 | 1251 ft | 118 kts | 332° |
| 2026-04-24 20:11 | 54.15999 | 7.94200 | 966 ft | 105 kts | 331° |
| 2026-04-24 20:12 | 54.16627 | 7.93630 | 627 ft | 98 kts | 329° |
| 2026-04-24 20:12 | 54.17166 | 7.93078 | 430 ft | 79 kts | 325° |
| 2026-04-24 20:12 | 54.17540 | 7.92617 | 238 ft | 61 kts | 322° |
| 2026-04-24 20:12 | 54.17892 | 7.92176 | 134 ft | 64 kts | 324° |
| 2026-04-24 20:13 | 54.18237 | 7.91779 | 47 ft | 52 kts | 324° |
| 2026-04-24 20:13 | 54.18438 | 7.91536 | 6 ft | 17 kts | 322° |
| 2026-04-24 20:13 | 54.18516 | 7.91434 | 6 ft | 14 kts | 323° |
| 2026-04-24 20:13 | 54.18591 | 7.91390 | 4 ft | 8 kts | 34° |
| 2026-04-24 20:14 | 54.18624 | 7.91414 | 5 ft | 0 kts | 345° |
| 2026-04-24 20:14 | 54.18650 | 7.91443 | 6 ft | 0 kts | 119° |
| 2026-04-24 20:15 | 54.18650 | 7.91442 | 6 ft | 0 kts | 118° |
| 2026-04-24 20:18 | 54.18651 | 7.91442 | 6 ft | 0 kts | 117° |
| 2026-04-24 20:19 | 54.18651 | 7.91441 | 6 ft | 0 kts | 117° |